Weather History for Perryton, TX

Change the Weather History Date:

Sunday, October 14, 2012

  Actual Average Record
Temperature  
Mean Temperature 62 °F -  
Max Temperature 77 °F 74 °F 94 °F (1989)
Min Temperature 46 °F 42 °F 27 °F (1969)
Degree Days  
Heating Degree Days 4    
Growing Degree Days 12 (Base 50)    
Moisture  
Dew Point 41 °F    
Average Humidity 54    
Maximum Humidity 87    
Minimum Humidity 21    
Precipitation  
Precipitation 0.00 in - - ()
Sea Level Pressure  
Sea Level Pressure 30.12 in    
Wind  
Wind Speed 15 mph (NW)    
Max Wind Speed 22 mph    
Max Gust Speed 28 mph    
Visibility 10 miles    
Events      
Averages and records for this station are not official NWS values.
T = Trace of Precipitation, MM = Missing Value Source: NWS Daily Summary

Daily Weather History Graph

Daily Weather History Graph

Search for Another Location

Airport:

Trip Planner

Search our weather history database for the weather conditions in past years. The results will help you decide how hot, cold, wet, or windy it might be!

Date:

Astronomy

Oct. 14, 2012 Rise Set
Actual Time 7:49 AM CDT 7:07 PM CDT
Civil Twilight 7:23 AM CDT 7:33 PM CDT
Nautical Twilight 6:53 AM CDT 8:03 PM CDT
Astronomical Twilight 6:24 AM CDT 8:33 PM CDT
Moon 6:51 AM CDT (10/14) 6:28 PM CDT (10/14)
Length of Visible Light 12h 09m
Length of Day
11h 17m
Waning Crescent, 1% of the Moon is Illuminated
Oct 14
Waning Crescent
Oct 15
New
Oct 21
First Quarter
Oct 29
Full
Nov 6
Last Quarter

Hourly Weather History & Observations

Time (CDT) Temp. Windchill Dew Point Humidity Pressure Visibility Wind Dir Wind Speed Gust Speed Precip Events Conditions
12:15 AM 55.4 °F - 44.6 °F 67% 29.91 in 10.0 mi West 20.7 mph 26.5 mph N/A   Clear
12:35 AM 55.4 °F - 46.4 °F 72% 29.91 in 10.0 mi West 17.3 mph - N/A   Clear
12:55 AM 53.6 °F - 46.4 °F 77% 29.91 in 10.0 mi WNW 15.0 mph - N/A   Clear
1:15 AM 55.4 °F - 44.6 °F 67% 29.91 in 10.0 mi WNW 19.6 mph - N/A   Clear
1:35 AM 55.4 °F - 44.6 °F 67% 29.92 in 10.0 mi WNW 15.0 mph - N/A   Clear
1:55 AM 55.4 °F - 44.6 °F 67% 29.93 in 10.0 mi NW 16.1 mph - N/A   Clear
2:35 AM 55.4 °F - 44.6 °F 67% 29.96 in 10.0 mi NW 18.4 mph - N/A   Clear
2:55 AM 55.4 °F - 42.8 °F 63% 29.96 in 10.0 mi NW 19.6 mph - N/A   Clear
3:15 AM 55.4 °F - 42.8 °F 63% 29.97 in 10.0 mi NW 19.6 mph - N/A   Clear
3:35 AM 55.4 °F - 42.8 °F 63% 29.98 in 10.0 mi NW 20.7 mph 26.5 mph N/A   Clear
3:55 AM 55.4 °F - 42.8 °F 63% 30.00 in 10.0 mi NW 16.1 mph 21.9 mph N/A   Clear
4:15 AM 53.6 °F - 42.8 °F 67% 30.00 in 10.0 mi NW 15.0 mph 20.7 mph N/A   Clear
4:35 AM 53.6 °F - 42.8 °F 67% 30.01 in 10.0 mi NW 13.8 mph - N/A   Clear
4:55 AM 53.6 °F - 42.8 °F 67% 30.03 in 10.0 mi NW 15.0 mph - N/A   Clear
5:15 AM 53.6 °F - 42.8 °F 67% 30.04 in 10.0 mi NW 16.1 mph - N/A   Clear
5:35 AM 53.6 °F - 42.8 °F 67% 30.06 in 10.0 mi NW 12.7 mph - N/A   Clear
5:55 AM 51.8 °F - 42.8 °F 71% 30.07 in 10.0 mi WNW 8.1 mph - N/A   Clear
6:15 AM 50.0 °F - 42.8 °F 76% 30.08 in 10.0 mi WNW 9.2 mph - N/A   Clear
6:35 AM 50.0 °F - 42.8 °F 76% 30.09 in 10.0 mi WNW 8.1 mph - N/A   Clear
6:55 AM 50.0 °F - 42.8 °F 76% 30.10 in 10.0 mi West 9.2 mph - N/A   Clear
7:15 AM 50.0 °F - 42.8 °F 76% 30.11 in 10.0 mi West 9.2 mph - N/A   Clear
7:35 AM 46.4 °F 41.9 °F 41.0 °F 81% 30.12 in 10.0 mi West 9.2 mph - N/A   Clear
7:55 AM 46.4 °F 41.5 °F 42.8 °F 87% 30.12 in 10.0 mi WNW 10.4 mph - N/A   Clear
8:15 AM 50.0 °F - 42.8 °F 76% 30.14 in 10.0 mi WNW 11.5 mph - N/A   Clear
8:35 AM 51.8 °F - 42.8 °F 71% 30.15 in 10.0 mi WNW 13.8 mph - N/A   Clear
8:55 AM 55.4 °F - 42.8 °F 63% 30.17 in 10.0 mi WNW 15.0 mph - N/A   Clear
9:15 AM 57.2 °F - 42.8 °F 59% 30.18 in 10.0 mi NW 16.1 mph - N/A   Clear
9:35 AM 59.0 °F - 42.8 °F 55% 30.19 in 10.0 mi NW 17.3 mph 20.7 mph N/A   Clear
9:55 AM 60.8 °F - 42.8 °F 52% 30.20 in 10.0 mi NNW 18.4 mph 24.2 mph N/A   Clear
10:15 AM 62.6 °F - 41.0 °F 45% 30.20 in 10.0 mi NNW 21.9 mph 27.6 mph N/A   Clear
10:35 AM 62.6 °F - 41.0 °F 45% 30.21 in 10.0 mi NNW 19.6 mph - N/A   Clear
10:55 AM 64.4 °F - 41.0 °F 42% 30.21 in 10.0 mi NNW 16.1 mph - N/A   Clear
11:15 AM 68.0 °F - 37.4 °F 33% 30.21 in 10.0 mi North 20.7 mph 27.6 mph N/A   Clear
11:35 AM 68.0 °F - 37.4 °F 33% 30.22 in 10.0 mi North 17.3 mph 21.9 mph N/A   Clear
11:55 AM 69.8 °F - 37.4 °F 31% 30.22 in 10.0 mi North 17.3 mph 25.3 mph N/A   Clear
12:15 PM 71.6 °F - 37.4 °F 29% 30.22 in 10.0 mi North 21.9 mph 25.3 mph N/A   Clear
12:35 PM 71.6 °F - 37.4 °F 29% 30.22 in 10.0 mi North 17.3 mph 20.7 mph N/A   Clear
12:55 PM 71.6 °F - 37.4 °F 29% 30.22 in 10.0 mi NW 18.4 mph 25.3 mph N/A   Clear
1:35 PM 73.4 °F - 37.4 °F 27% 30.20 in 10.0 mi NW 17.3 mph 21.9 mph N/A   Clear
1:55 PM 73.4 °F - 37.4 °F 27% 30.18 in 10.0 mi North 17.3 mph 21.9 mph N/A   Clear
2:15 PM 73.4 °F - 35.6 °F 25% 30.17 in 10.0 mi NW 16.1 mph 21.9 mph N/A   Clear
2:35 PM 73.4 °F - 35.6 °F 25% 30.17 in 10.0 mi NNW 10.4 mph 24.2 mph N/A   Clear
3:35 PM 77.0 °F - 33.8 °F 21% 30.16 in 10.0 mi NW 11.5 mph 20.7 mph N/A   Clear
4:15 PM 75.2 °F - 35.6 °F 24% 30.16 in 10.0 mi NNW 15.0 mph 20.7 mph N/A   Clear
5:35 PM 73.4 °F - 35.6 °F 25% 30.15 in 10.0 mi NW 12.7 mph 19.6 mph N/A   Clear
5:55 PM 73.4 °F - 33.8 °F 23% 30.14 in 10.0 mi NNW 12.7 mph - N/A   Clear
6:15 PM 71.6 °F - 35.6 °F 27% 30.14 in 10.0 mi North 12.7 mph - N/A   Clear
6:55 PM 68.0 °F - 37.4 °F 33% 30.15 in 10.0 mi North 4.6 mph - N/A   Clear
7:15 PM 64.4 °F - 37.4 °F 37% 30.15 in 10.0 mi North 4.6 mph - N/A   Clear
7:35 PM 64.4 °F - 37.4 °F 37% 30.16 in 10.0 mi North 4.6 mph - N/A   Clear
7:55 PM 64.4 °F - 37.4 °F 37% 30.16 in 10.0 mi North 4.6 mph - N/A   Clear
8:15 PM 60.8 °F - 41.0 °F 48% 30.16 in 10.0 mi North 3.5 mph - N/A   Clear
8:35 PM 60.8 °F - 41.0 °F 48% 30.16 in 10.0 mi North 5.8 mph - N/A   Clear
8:55 PM 57.2 °F - 41.0 °F 55% 30.16 in 10.0 mi North 4.6 mph - N/A   Clear
9:15 PM 59.0 °F - 41.0 °F 51% 30.17 in 4.0 mi NNE 3.5 mph - N/A   Clear
9:35 PM 59.0 °F - 41.0 °F 51% 30.17 in 10.0 mi NE 3.5 mph - N/A   Clear
9:55 PM 51.8 °F - 41.0 °F 67% 30.17 in 10.0 mi SSW 5.8 mph - N/A   Clear
10:15 PM 53.6 °F - 41.0 °F 62% 30.17 in 10.0 mi Calm Calm - N/A   Clear
10:35 PM 53.6 °F - 41.0 °F 62% 30.17 in 10.0 mi SSW 3.5 mph - N/A   Clear
10:55 PM 51.8 °F - 41.0 °F 67% 30.18 in 10.0 mi South 3.5 mph - N/A   Clear
11:15 PM 53.6 °F - 41.0 °F 62% 30.18 in 10.0 mi SSW 5.8 mph - N/A   Clear
11:35 PM 50.0 °F - 41.0 °F 71% 30.18 in 10.0 mi SSW 6.9 mph - N/A   Clear
11:55 PM 50.0 °F - 41.0 °F 71% 30.18 in 10.0 mi SSW 8.1 mph - N/A   Clear